Time;durP1;ratioP1;P1;durP2;ratioP2;P2;SDS_P1;SDS_P2;PMS_P1;PMS_P2;Temp;Humidity;BMP_temperature;BMP_pressure;BME280_temperature;BME280_humidity;BME280_pressure;Samples;Min_cycle;Max_cycle;Signal;HPM_P1;HPM_P2
2022/02/22 00:00:41;;;;;;;14.80;6.47;;;;;;;1.43;100.00;99447.11;1848585;77;21338;-76
2022/02/22 00:03:48;;;;;;;10.00;5.60;;;;;;;1.41;100.00;99439.65;1847957;77;21719;-76
2022/02/22 00:06:56;;;;;;;13.50;5.95;;;;;;;1.37;100.00;99443.64;1848087;77;21262;-84
2022/02/22 00:10:03;;;;;;;11.28;6.03;;;;;;;1.35;100.00;99437.52;1847048;77;21243;-76
2022/02/22 00:13:10;;;;;;;8.65;5.15;;;;;;;1.33;100.00;99440.86;1847197;77;21870;-76
2022/02/22 00:16:15;;;;;;;12.13;5.90;;;;;;;1.29;100.00;99438.93;1847277;77;21277;-76
2022/02/22 00:19:22;;;;;;;11.25;5.65;;;;;;;1.26;100.00;99437.35;1848529;77;21127;-76
2022/02/22 00:22:27;;;;;;;14.13;6.35;;;;;;;1.26;100.00;99437.85;1847782;77;21839;-75
2022/02/22 00:25:33;;;;;;;11.97;5.95;;;;;;;1.22;100.00;99439.11;1848759;77;21243;-84
2022/02/22 00:28:38;;;;;;;13.93;6.00;;;;;;;1.15;100.00;99441.52;1848644;77;21258;-82
2022/02/22 00:31:44;;;;;;;15.90;6.15;;;;;;;1.08;100.00;99439.50;1848352;77;21580;-84
2022/02/22 00:34:50;;;;;;;15.03;6.78;;;;;;;1.03;100.00;99437.22;1848622;77;21765;-84
2022/02/22 00:37:55;;;;;;;15.78;6.72;;;;;;;1.01;100.00;99432.47;1848611;77;21171;-84
2022/02/22 00:40:59;;;;;;;14.80;5.97;;;;;;;0.99;100.00;99431.27;1848710;77;21258;-80
2022/02/22 00:44:04;;;;;;;14.98;7.03;;;;;;;1.00;100.00;99425.39;1848698;77;21259;-84
2022/02/22 00:47:10;;;;;;;13.20;6.20;;;;;;;0.99;100.00;99419.66;1848656;77;21194;-84
2022/02/22 00:50:15;;;;;;;14.35;6.03;;;;;;;0.98;100.00;99430.05;1848676;77;21239;-84
2022/02/22 00:53:23;;;;;;;9.05;6.10;;;;;;;0.98;100.00;99415.23;1848553;77;21863;-83
2022/02/22 00:56:27;;;;;;;14.35;6.05;;;;;;;0.98;100.00;99424.16;1847818;77;21184;-85
2022/02/22 00:59:32;;;;;;;10.88;5.50;;;;;;;1.01;100.00;99419.86;1848504;77;21132;-75
2022/02/22 01:02:38;;;;;;;14.85;5.97;;;;;;;1.03;100.00;99414.32;1847631;77;21289;-85
2022/02/22 01:05:44;;;;;;;18.15;7.15;;;;;;;1.01;100.00;99417.16;1846887;77;21259;-76
2022/02/22 01:08:49;;;;;;;11.95;6.12;;;;;;;1.00;100.00;99416.81;1846951;77;21329;-76
2022/02/22 01:11:55;;;;;;;12.98;6.05;;;;;;;1.03;100.00;99423.75;1847982;77;21190;-76
2022/02/22 01:15:01;;;;;;;18.52;7.05;;;;;;;1.00;100.00;99419.51;1847716;77;21171;-76
2022/02/22 01:18:07;;;;;;;17.02;7.37;;;;;;;1.02;100.00;99426.09;1847260;77;21859;-86
2022/02/22 01:21:13;;;;;;;16.52;8.63;;;;;;;1.05;100.00;99430.37;1846935;77;21219;-83
2022/02/22 01:24:19;;;;;;;21.02;8.78;;;;;;;1.10;100.00;99433.00;1848440;77;21143;-77
2022/02/22 01:27:24;;;;;;;14.98;8.00;;;;;;;1.09;100.00;99432.65;1847678;77;21836;-86
2022/02/22 01:30:30;;;;;;;13.78;7.08;;;;;;;1.10;100.00;99432.15;1847023;77;21739;-84
2022/02/22 01:33:36;;;;;;;19.82;5.75;;;;;;;1.13;100.00;99435.43;1848427;77;21309;-86
2022/02/22 01:36:41;;;;;;;10.13;5.83;;;;;;;1.14;100.00;99428.20;1848119;77;21277;-86
2022/02/22 01:39:47;;;;;;;9.60;5.50;;;;;;;1.09;100.00;99426.41;1848514;77;21788;-76
2022/02/22 01:42:56;;;;;;;15.53;6.65;;;;;;;1.00;100.00;99422.70;1847305;77;21175;-85
2022/02/22 01:46:01;;;;;;;12.37;6.15;;;;;;;0.96;100.00;99421.27;1847292;77;21255;-76
2022/02/22 01:49:07;;;;;;;14.73;6.47;;;;;;;0.91;100.00;99409.55;1848356;77;21261;-76
2022/02/22 01:52:13;;;;;;;13.45;6.85;;;;;;;0.89;100.00;99413.36;1847769;77;21310;-76
2022/02/22 01:55:18;;;;;;;12.73;7.58;;;;;;;0.93;100.00;99412.10;1848722;77;21210;-85
2022/02/22 01:58:24;;;;;;;12.45;7.70;;;;;;;0.96;100.00;99415.88;1848191;77;21816;-76
2022/02/22 02:01:29;;;;;;;14.90;7.67;;;;;;;0.98;100.00;99411.20;1846973;77;21198;-76
2022/02/22 02:04:34;;;;;;;14.47;7.25;;;;;;;0.96;100.00;99413.19;1848880;77;21895;-76
2022/02/22 02:07:41;;;;;;;14.58;8.25;;;;;;;0.97;100.00;99413.03;1848662;77;21176;-85
2022/02/22 02:10:47;;;;;;;23.85;10.82;;;;;;;0.95;100.00;99420.41;1848775;77;21282;-83
2022/02/22 02:13:53;;;;;;;23.02;9.78;;;;;;;0.93;100.00;99430.95;1848730;77;21278;-80
2022/02/22 02:17:01;;;;;;;21.45;9.53;;;;;;;0.96;100.00;99426.16;1848322;77;21254;-85
2022/02/22 02:20:01;;;;;;;21.90;10.93;;;;;;;0.97;99.89;99421.11;1848786;77;21262;-78
2022/02/22 02:23:06;;;;;;;21.60;12.30;;;;;;;0.97;99.49;99421.61;1848734;77;21278;-85
2022/02/22 02:26:11;;;;;;;26.97;13.62;;;;;;;0.92;99.08;99425.21;1848633;77;21297;-76
2022/02/22 02:29:20;;;;;;;29.60;13.85;;;;;;;0.84;99.02;99426.38;1848740;77;21238;-81
2022/02/22 02:32:25;;;;;;;30.88;13.35;;;;;;;0.75;99.31;99426.70;1848697;77;21124;-77
2022/02/22 02:35:32;;;;;;;24.50;13.38;;;;;;;0.72;99.75;99432.37;1848565;77;21175;-77
2022/02/22 02:38:37;;;;;;;35.17;16.87;;;;;;;0.71;100.00;99433.36;1848626;77;21843;-85
2022/02/22 02:41:43;;;;;;;33.18;15.10;;;;;;;0.72;100.00;99441.79;1848166;77;21227;-85
2022/02/22 02:44:49;;;;;;;32.67;14.43;;;;;;;0.71;100.00;99439.59;1848589;77;21772;-76
2022/02/22 02:47:55;;;;;;;32.10;15.15;;;;;;;0.73;100.00;99437.61;1847852;77;21139;-76
2022/02/22 02:51:01;;;;;;;24.15;12.65;;;;;;;0.76;100.00;99443.23;1848549;77;21245;-85
2022/02/22 02:54:06;;;;;;;22.90;10.58;;;;;;;0.79;100.00;99439.40;1848596;77;21290;-76
2022/02/22 02:57:13;;;;;;;23.47;11.60;;;;;;;0.83;100.00;99428.22;1847294;77;21274;-76
2022/02/22 03:00:19;;;;;;;19.60;11.38;;;;;;;0.85;100.00;99428.95;1847373;77;21278;-76
2022/02/22 03:03:25;;;;;;;21.02;12.60;;;;;;;0.84;100.00;99428.58;1847794;77;21238;-76
2022/02/22 03:06:30;;;;;;;27.00;12.90;;;;;;;0.88;100.00;99432.70;1847921;77;21209;-77
2022/02/22 03:09:36;;;;;;;16.25;10.05;;;;;;;1.00;100.00;99425.39;1848534;77;21139;-76
2022/02/22 03:12:41;;;;;;;15.95;9.88;;;;;;;1.11;100.00;99430.66;1824006;77;21890;-76
2022/02/22 03:15:49;;;;;;;17.60;9.55;;;;;;;1.16;100.00;99427.55;1847043;77;21151;-76
2022/02/22 03:18:55;;;;;;;12.45;8.65;;;;;;;1.21;100.00;99423.95;1847489;77;21325;-76
2022/02/22 03:21:56;;;;;;;14.70;10.05;;;;;;;1.23;100.00;99413.91;1825055;77;21871;-76
2022/02/22 03:25:01;;;;;;;14.60;9.13;;;;;;;1.20;100.00;99418.20;1848589;77;21314;-81
2022/02/22 03:28:08;;;;;;;14.83;8.98;;;;;;;1.17;100.00;99409.05;1847140;77;21819;-84
2022/02/22 03:31:14;;;;;;;13.28;8.53;;;;;;;1.14;100.00;99409.34;1848467;77;21274;-80
2022/02/22 03:34:20;;;;;;;11.05;8.38;;;;;;;1.13;100.00;99407.14;1847443;77;21330;-76
2022/02/22 03:37:25;;;;;;;20.32;8.43;;;;;;;1.14;100.00;99404.80;1847597;77;21257;-84
2022/02/22 03:40:30;;;;;;;11.43;7.90;;;;;;;1.15;100.00;99407.84;1847033;77;21258;-84
2022/02/22 03:43:36;;;;;;;11.18;8.60;;;;;;;1.18;100.00;99404.89;1847001;77;21152;-84
2022/02/22 03:46:41;;;;;;;11.45;8.95;;;;;;;1.22;100.00;99402.28;1848151;77;21586;-75
2022/02/22 03:49:47;;;;;;;12.75;9.88;;;;;;;1.23;100.00;99403.97;1847263;77;21599;-76
2022/02/22 03:52:53;;;;;;;12.43;9.38;;;;;;;1.25;100.00;99409.21;1847431;77;21215;-85
2022/02/22 03:55:58;;;;;;;11.60;8.80;;;;;;;1.29;100.00;99410.64;1848460;77;21242;-77
2022/02/22 03:59:03;;;;;;;19.35;9.53;;;;;;;1.32;100.00;99408.14;1848461;77;21255;-86
2022/02/22 04:02:03;;;;;;;10.68;7.70;;;;;;;1.31;100.00;99408.64;1806035;79;21619;-78
2022/02/22 04:05:10;;;;;;;12.18;8.60;;;;;;;1.31;100.00;99399.72;1804932;78;21331;-86
2022/02/22 04:08:15;;;;;;;10.30;7.90;;;;;;;1.30;100.00;99395.33;1805029;79;21290;-86
2022/02/22 04:11:21;;;;;;;9.83;7.12;;;;;;;1.25;100.00;99395.74;1806310;79;21256;-86
2022/02/22 04:14:26;;;;;;;8.95;7.37;;;;;;;1.21;100.00;99395.16;1806376;79;21785;-77
2022/02/22 04:17:32;;;;;;;9.33;6.55;;;;;;;1.17;100.00;99400.96;1805680;79;21287;-77
2022/02/22 04:20:38;;;;;;;11.05;7.20;;;;;;;1.19;100.00;99399.00;1804871;78;21215;-84
2022/02/22 04:23:44;;;;;;;8.20;6.70;;;;;;;1.21;100.00;99401.89;1806424;79;21302;-80
2022/02/22 04:26:49;;;;;;;8.75;6.85;;;;;;;1.25;100.00;99400.63;1811383;78;21188;-77
2022/02/22 04:29:54;;;;;;;9.60;6.62;;;;;;;1.29;100.00;99397.17;1825994;77;21148;-81
2022/02/22 04:33:00;;;;;;;9.35;6.97;;;;;;;1.31;100.00;99388.94;1836037;77;21206;-77
2022/02/22 04:36:08;;;;;;;10.72;8.13;;;;;;;1.30;100.00;99388.59;1830249;77;21841;-77
2022/02/22 04:39:13;;;;;;;11.80;7.62;;;;;;;1.29;100.00;99389.09;1826105;78;21295;-80
2022/02/22 04:42:19;;;;;;;12.80;9.53;;;;;;;1.31;100.00;99384.39;1826014;78;21806;-86
2022/02/22 04:45:25;;;;;;;15.38;10.50;;;;;;;1.35;100.00;99389.02;1827041;77;21259;-78
2022/02/22 04:48:30;;;;;;;16.62;10.80;;;;;;;1.39;100.00;99386.41;1825927;78;21196;-80
2022/02/22 04:51:36;;;;;;;12.95;9.80;;;;;;;1.43;100.00;99401.30;1829369;77;21358;-86
2022/02/22 04:54:41;;;;;;;14.10;9.95;;;;;;;1.47;100.00;99391.45;1846405;77;21124;-75
2022/02/22 04:57:48;;;;;;;11.90;8.05;;;;;;;1.52;100.00;99394.57;1844885;77;21177;-75
2022/02/22 05:00:55;;;;;;;11.63;8.73;;;;;;;1.54;100.00;99392.58;1850061;75;21160;-76
2022/02/22 05:04:02;;;;;;;11.18;8.43;;;;;;;1.57;100.00;99391.45;1786679;80;21270;-84
2022/02/22 05:07:07;;;;;;;15.32;10.88;;;;;;;1.63;100.00;99393.58;1875104;76;21272;-76
2022/02/22 05:10:13;;;;;;;11.65;8.45;;;;;;;1.65;100.00;99393.45;1875714;76;21255;-85
2022/02/22 05:13:18;;;;;;;12.58;9.60;;;;;;;1.67;100.00;99396.34;1841477;78;21180;-76
2022/02/22 05:16:25;;;;;;;10.85;8.28;;;;;;;1.72;100.00;99403.51;1802841;79;21283;-76
2022/02/22 05:19:30;;;;;;;15.58;9.05;;;;;;;1.79;100.00;99399.27;1819348;79;21284;-85
2022/02/22 05:22:36;;;;;;;11.80;8.58;;;;;;;1.85;100.00;99405.08;1865690;76;21306;-76
2022/02/22 05:25:41;;;;;;;10.15;8.25;;;;;;;1.90;100.00;99413.59;1851772;76;21852;-84
2022/02/22 05:28:46;;;;;;;12.40;8.90;;;;;;;1.94;100.00;99413.66;1786385;80;21310;-85
2022/02/22 05:31:53;;;;;;;8.43;7.28;;;;;;;2.01;100.00;99421.52;1857943;76;21195;-76
2022/02/22 05:35:00;;;;;;;9.15;7.00;;;;;;;2.08;100.00;99417.27;1839813;78;21176;-76
2022/02/22 05:38:06;;;;;;;8.98;7.53;;;;;;;2.14;100.00;99413.14;1838700;78;21204;-84
2022/02/22 05:41:13;;;;;;;8.75;6.65;;;;;;;2.16;100.00;99416.03;1846453;75;21242;-76
2022/02/22 05:44:19;;;;;;;8.80;7.00;;;;;;;2.17;100.00;99419.10;1789683;79;22086;-83
2022/02/22 05:47:24;;;;;;;8.68;7.08;;;;;;;2.23;100.00;99410.42;1870739;76;21255;-84
2022/02/22 05:50:38;;;;;;;10.03;7.50;;;;;;;2.25;100.00;99416.51;1866522;75;21137;-77
2022/02/22 05:53:44;;;;;;;10.43;7.72;;;;;;;2.30;100.00;99411.52;1856289;75;21251;-85
2022/02/22 05:56:49;;;;;;;9.13;6.95;;;;;;;2.36;100.00;99423.61;1861383;75;21274;-85
2022/02/22 05:59:55;;;;;;;8.28;6.37;;;;;;;2.40;100.00;99425.03;1863167;75;21317;-85
2022/02/22 06:03:00;;;;;;;9.78;7.78;;;;;;;2.49;100.00;99435.42;1854962;75;21807;-84
2022/02/22 06:06:08;;;;;;;6.42;5.62;;;;;;;2.56;100.00;99436.55;1785924;78;21870;-76
2022/02/22 06:09:13;;;;;;;9.43;7.40;;;;;;;2.64;100.00;99442.58;1784862;79;21460;-76
2022/02/22 06:12:19;;;;;;;9.25;7.67;;;;;;;2.78;100.00;99451.06;1816787;76;21188;-76
2022/02/22 06:15:25;;;;;;;12.68;9.50;;;;;;;2.90;100.00;99452.21;1786087;79;21302;-84
2022/02/22 06:18:31;;;;;;;12.65;8.35;;;;;;;2.97;100.00;99442.03;1823242;76;21773;-75
2022/02/22 06:21:36;;;;;;;14.47;8.38;;;;;;;3.05;100.00;99445.31;1818041;77;21888;-76
2022/02/22 06:24:41;;;;;;;11.45;8.70;;;;;;;3.09;100.00;99437.27;1814485;77;21515;-84
2022/02/22 06:28:00;;;;;;;10.98;8.83;;;;;;;3.15;100.00;99443.91;1854822;75;22096;-75
2022/02/22 06:31:10;;;;;;;13.38;9.60;;;;;;;3.20;100.00;99439.78;1857607;75;21172;-75
2022/02/22 06:34:13;;;;;;;12.90;9.30;;;;;;;3.26;100.00;99445.08;1857825;75;21348;-76
2022/02/22 06:37:22;;;;;;;14.03;9.00;;;;;;;3.32;100.00;99443.97;1783315;78;21278;-76
2022/02/22 06:40:28;;;;;;;14.87;10.65;;;;;;;3.44;100.00;99444.63;1786322;78;21287;-76
2022/02/22 06:43:33;;;;;;;12.40;9.50;;;;;;;3.56;100.00;99433.08;1788809;78;21263;-76
2022/02/22 06:46:40;;;;;;;13.75;10.10;;;;;;;3.64;100.00;99438.58;1784186;78;22021;-77
2022/02/22 06:49:45;;;;;;;12.73;9.80;;;;;;;3.69;100.00;99432.20;1812204;77;21809;-77
2022/02/22 06:52:50;;;;;;;14.50;10.10;;;;;;;3.71;100.00;99440.16;1785448;78;21285;-77
2022/02/22 06:55:58;;;;;;;17.17;11.00;;;;;;;3.74;100.00;99432.59;1785138;78;21196;-86
2022/02/22 06:59:11;;;;;;;15.20;10.55;;;;;;;3.81;100.00;99436.39;1812367;77;21572;-85
2022/02/22 07:02:17;;;;;;;14.58;9.70;;;;;;;3.89;100.00;99444.22;1816704;76;21294;-88
2022/02/22 07:05:24;;;;;;;15.38;10.45;;;;;;;3.95;100.00;99440.89;1819391;77;21338;-85
2022/02/22 07:08:29;;;;;;;12.23;8.90;;;;;;;4.07;100.00;99432.89;1817198;77;21208;-87
2022/02/22 07:11:35;;;;;;;13.30;9.88;;;;;;;4.17;100.00;99435.51;1819642;77;21292;-88
2022/02/22 07:14:40;;;;;;;17.75;11.65;;;;;;;4.23;100.00;99432.16;1796236;77;21673;-88
2022/02/22 07:17:59;;;;;;;17.60;10.93;;;;;;;4.22;100.00;99439.44;1797403;78;21621;-87
2022/02/22 07:21:15;;;;;;;15.53;11.15;;;;;;;4.29;100.00;99445.09;1794635;77;21282;-85
2022/02/22 07:24:21;;;;;;;17.70;12.15;;;;;;;4.36;100.00;99434.81;1790874;77;21286;-86
2022/02/22 07:27:26;;;;;;;14.98;10.58;;;;;;;4.48;100.00;99441.34;1792848;77;22121;-84
2022/02/22 07:30:31;;;;;;;17.95;11.80;;;;;;;4.54;100.00;99447.47;1799234;78;21944;-86
2022/02/22 07:33:40;;;;;;;18.52;11.85;;;;;;;4.64;100.00;99445.50;1799055;78;21196;-85
2022/02/22 07:36:48;;;;;;;19.17;13.05;;;;;;;4.83;100.00;99445.79;1796069;78;21702;-78
2022/02/22 07:39:55;;;;;;;18.55;12.95;;;;;;;4.92;100.00;99442.63;1797885;77;21234;-76
2022/02/22 07:43:03;;;;;;;16.12;11.57;;;;;;;4.90;100.00;99440.59;1795471;78;21287;-85
2022/02/22 07:46:11;;;;;;;19.82;12.70;;;;;;;4.93;100.00;99445.67;1800464;77;21291;-86
2022/02/22 07:49:19;;;;;;;19.80;12.82;;;;;;;5.02;100.00;99448.77;1795065;77;21182;-89
2022/02/22 07:52:26;;;;;;;18.70;13.43;;;;;;;5.13;100.00;99443.93;1796166;77;21746;-86
2022/02/22 07:55:32;;;;;;;21.55;13.22;;;;;;;5.23;100.00;99445.16;1799075;77;21342;-86
2022/02/22 07:58:38;;;;;;;17.32;12.88;;;;;;;5.32;100.00;99444.17;1788016;78;21257;-85
2022/02/22 08:01:45;;;;;;;16.30;12.80;;;;;;;5.41;100.00;99446.89;1786778;78;21405;-77
2022/02/22 08:04:52;;;;;;;19.48;13.35;;;;;;;5.47;100.00;99445.75;1823290;78;21295;-79
2022/02/22 08:08:00;;;;;;;17.37;12.43;;;;;;;5.53;100.00;99449.15;1819479;78;21291;-78
2022/02/22 08:11:07;;;;;;;16.02;11.10;;;;;;;5.62;100.00;99453.59;1793409;78;21344;-77
2022/02/22 08:14:14;;;;;;;17.20;11.70;;;;;;;5.77;100.00;99455.14;1792408;78;21189;-85
2022/02/22 08:17:22;;;;;;;18.12;12.53;;;;;;;5.85;100.00;99449.73;1783145;78;21229;-76
2022/02/22 08:20:27;;;;;;;15.35;12.13;;;;;;;5.91;100.00;99446.86;1788156;78;21295;-76
2022/02/22 08:23:35;;;;;;;18.50;12.63;;;;;;;5.96;100.00;99444.52;1816314;77;22545;-76
2022/02/22 08:26:41;;;;;;;18.57;12.68;;;;;;;6.02;100.00;99449.30;1810576;77;21696;-76
2022/02/22 08:29:47;;;;;;;14.73;11.60;;;;;;;6.12;100.00;99447.78;1815550;77;21455;-77
2022/02/22 08:33:01;;;;;;;21.25;13.15;;;;;;;6.23;100.00;99451.51;1817156;76;21545;-86
2022/02/22 08:36:41;;;;;;;18.48;13.65;;;;;;;6.42;100.00;99451.67;1820407;77;21436;-76
2022/02/22 08:39:50;;;;;;;18.98;12.53;;;;;;;6.67;100.00;99451.13;1785726;79;21802;-76
2022/02/22 08:42:56;;;;;;;20.02;12.33;;;;;;;6.82;100.00;99451.27;1780598;78;21830;-75
2022/02/22 08:46:12;;;;;;;19.30;12.68;;;;;;;6.94;99.44;99443.62;1819202;77;21552;-86
2022/02/22 08:49:18;;;;;;;20.25;12.63;;;;;;;7.06;97.32;99449.88;1790098;78;21312;-85
2022/02/22 08:53:05;;;;;;;17.25;12.60;;;;;;;7.12;96.10;99442.88;1792779;79;21327;-88
2022/02/22 08:56:03;;;;;;;20.10;12.13;;;;;;;7.21;95.51;99444.55;1786557;78;21176;-78
2022/02/22 08:59:11;;;;;;;19.30;11.83;;;;;;;7.30;94.62;99444.02;1783247;79;21180;-77
2022/02/22 09:02:16;;;;;;;17.60;12.75;;;;;;;7.33;94.10;99445.84;1756226;78;21189;-77
2022/02/22 09:05:23;;;;;;;17.60;12.13;;;;;;;7.41;93.73;99448.54;1781359;78;21885;-76
2022/02/22 09:08:34;;;;;;;20.05;11.75;;;;;;;7.54;93.13;99445.25;1835095;76;21281;-85
2022/02/22 09:11:43;;;;;;;18.05;12.37;;;;;;;7.69;91.98;99443.46;1830456;74;21167;-88
2022/02/22 09:14:54;;;;;;;17.80;12.10;;;;;;;7.83;90.65;99441.85;1830134;76;21670;-85
2022/02/22 09:18:03;;;;;;;19.60;13.75;;;;;;;7.97;89.61;99450.28;1826818;76;21555;-85
2022/02/22 09:21:10;;;;;;;24.37;12.90;;;;;;;8.04;88.56;99445.79;1829239;76;21328;-83
2022/02/22 09:24:18;;;;;;;18.50;12.18;;;;;;;8.07;87.46;99449.53;1822491;76;21329;-84
2022/02/22 09:27:25;;;;;;;22.60;11.97;;;;;;;8.04;86.72;99448.52;1823982;76;21182;-78
2022/02/22 09:30:31;;;;;;;18.20;12.40;;;;;;;7.91;86.03;99450.49;1826555;76;21270;-77
2022/02/22 09:33:47;;;;;;;24.43;12.25;;;;;;;7.79;86.20;99444.59;1826333;76;21312;-79
2022/02/22 09:37:06;;;;;;;;;;;;;;;;;;;;;
2022/02/22 09:40:19;;;;;;;18.17;12.18;;;;;;;7.65;86.81;99430.39;1832717;76;21241;-77
2022/02/22 09:43:33;;;;;;;;;;;;;;;7.60;87.02;99428.72;1834704;76;21717;-81
2022/02/22 09:46:45;;;;;;;20.20;11.57;;;;;;;7.67;87.21;99423.75;1831644;76;20218;-86
2022/02/22 09:49:54;;;;;;;21.20;12.53;;;;;;;7.78;87.40;99415.69;1806856;76;21661;-84
2022/02/22 09:53:06;;;;;;;17.98;10.93;;;;;;;7.92;87.16;99413.55;1830489;76;21533;-86
2022/02/22 09:56:14;;;;;;;17.90;10.68;;;;;;;8.07;86.26;99415.48;1832931;76;21269;-77
2022/02/22 09:59:24;;;;;;;17.45;12.28;;;;;;;8.19;85.85;99418.12;1834200;76;21839;-75
2022/02/22 10:02:44;;;;;;;22.45;12.05;;;;;;;8.29;84.52;99417.87;1767000;79;21382;-76
2022/02/22 10:05:58;;;;;;;19.90;11.55;;;;;;;8.30;83.96;99405.41;1736449;79;21373;-76
2022/02/22 10:09:06;;;;;;;21.40;12.45;;;;;;;8.25;83.80;99403.76;1869439;74;22275;-75
2022/02/22 10:12:14;;;;;;;19.57;11.68;;;;;;;8.24;84.08;99402.07;1865885;74;21235;-76
2022/02/22 10:15:23;;;;;;;23.42;10.15;;;;;;;8.24;83.69;99395.78;1863590;75;21419;-84
2022/02/22 10:18:33;;;;;;;25.27;12.23;;;;;;;8.25;83.95;99388.77;1864932;74;21417;-77
2022/02/22 10:21:58;;;;;;;17.92;11.05;;;;;;;8.39;84.06;99381.19;1794510;78;21772;-76
2022/02/22 10:25:18;;;;;;;15.15;10.25;;;;;;;8.52;83.33;99376.98;1812790;77;21157;-75
2022/02/22 10:28:27;;;;;;;17.12;10.88;;;;;;;8.70;83.20;99370.63;1814237;77;21181;-76
2022/02/22 10:31:46;;;;;;;17.17;10.85;;;;;;;8.84;81.45;99368.95;1787521;78;21296;-77
2022/02/22 10:34:59;;;;;;;18.25;10.53;;;;;;;8.96;81.54;99364.20;1812327;77;21839;-84
2022/02/22 10:38:26;;;;;;;17.82;10.75;;;;;;;9.09;80.00;99359.98;1770496;78;21196;-83
2022/02/22 10:41:33;;;;;;;17.10;11.30;;;;;;;9.27;80.41;99360.42;1811453;77;21274;-76
2022/02/22 10:44:42;;;;;;;21.73;10.40;;;;;;;9.50;78.21;99368.95;1786541;78;21322;-85
2022/02/22 10:47:50;;;;;;;20.45;10.13;;;;;;;9.56;76.69;99359.50;1811693;77;21301;-84
2022/02/22 10:51:01;;;;;;;17.32;10.25;;;;;;;9.55;76.04;99376.05;1789611;78;21420;-76
2022/02/22 10:54:12;;;;;;;21.62;12.13;;;;;;;9.53;76.00;99369.95;1815303;77;21756;-76
2022/02/22 10:57:19;;;;;;;21.10;11.85;;;;;;;9.48;76.40;99363.18;1794807;78;21163;-76
2022/02/22 11:00:26;;;;;;;19.98;11.48;;;;;;;9.47;76.67;99343.75;1796191;78;21315;-76
2022/02/22 11:03:40;;;;;;;16.07;11.45;;;;;;;9.54;77.24;99345.70;1816051;77;21906;-78
2022/02/22 11:06:52;;;;;;;19.27;11.20;;;;;;;9.56;75.99;99355.41;1772780;78;21310;-87
2022/02/22 11:10:02;;;;;;;20.12;12.28;;;;;;;9.41;76.37;99356.81;1783232;77;21274;-77
2022/02/22 11:13:11;;;;;;;22.07;12.60;;;;;;;9.24;77.60;99355.86;1823636;76;21291;-77
2022/02/22 11:16:25;;;;;;;24.82;13.25;;;;;;;9.09;78.67;99350.42;1867245;74;21278;-76
2022/02/22 11:19:50;;;;;;;22.42;12.70;;;;;;;9.06;79.17;99350.80;1870334;74;21268;-75
2022/02/22 11:23:09;;;;;;;17.60;11.95;;;;;;;9.11;78.89;99349.19;1872743;75;21471;-86
2022/02/22 11:26:22;;;;;;;21.02;12.58;;;;;;;9.22;78.67;99357.39;1872502;74;21639;-78
2022/02/22 11:29:29;;;;;;;22.60;12.78;;;;;;;9.30;77.76;99372.30;1874491;74;21856;-75
2022/02/22 11:32:38;;;;;;;24.70;12.78;;;;;;;9.40;77.21;99373.36;1871279;75;21795;-86
2022/02/22 11:36:05;;;;;;;20.57;12.40;;;;;;;9.45;76.48;99373.11;1873164;74;21294;-86
2022/02/22 11:39:14;;;;;;;20.12;11.73;;;;;;;9.45;76.67;99374.47;1871027;74;21274;-84
2022/02/22 11:42:31;;;;;;;21.37;11.68;;;;;;;9.37;76.77;99369.67;1871796;75;21296;-85
2022/02/22 11:45:37;;;;;;;27.60;12.03;;;;;;;9.31;77.41;99356.25;1867426;76;21871;-76
2022/02/22 11:48:42;;;;;;;21.65;12.63;;;;;;;9.24;78.22;99359.43;1861020;76;21538;-76
2022/02/22 11:51:56;;;;;;;16.93;10.35;;;;;;;9.20;79.43;99353.50;1868608;76;21334;-76
2022/02/22 11:55:07;;;;;;;18.85;11.85;;;;;;;9.21;80.12;99357.07;1870423;74;21603;-76
2022/02/22 11:58:26;;;;;;;;;;;;;;;9.29;80.67;99365.68;1871490;74;21274;-76
2022/02/22 12:01:31;;;;;;;24.25;12.33;;;;;;;9.36;81.01;99362.00;1874035;74;20422;-84
2022/02/22 12:04:36;;;;;;;18.80;11.05;;;;;;;9.37;80.92;99362.84;1824373;77;21302;-86
2022/02/22 12:07:46;;;;;;;22.13;10.95;;;;;;;9.30;81.17;99366.84;1799157;78;21311;-87
2022/02/22 12:11:04;;;;;;;19.60;11.60;;;;;;;9.28;81.64;99366.20;1824883;76;21295;-78
2022/02/22 12:14:19;;;;;;;17.87;10.95;;;;;;;9.23;81.92;99369.18;1840176;75;21257;-86
2022/02/22 12:17:25;;;;;;;19.85;11.83;;;;;;;9.21;81.98;99372.92;1869703;74;21184;-84
2022/02/22 12:20:36;;;;;;;21.60;11.57;;;;;;;9.21;82.62;99374.28;1874145;75;22367;-87
2022/02/22 12:23:41;;;;;;;17.50;11.22;;;;;;;9.19;82.24;99368.70;1871500;74;21494;-77
2022/02/22 12:26:47;;;;;;;18.52;12.07;;;;;;;9.14;82.39;99367.06;1852557;75;21321;-87
2022/02/22 12:29:54;;;;;;;20.15;11.93;;;;;;;9.12;82.56;99371.84;1875224;74;21274;-78
2022/02/22 12:33:00;;;;;;;18.20;10.48;;;;;;;9.08;82.66;99371.90;1869152;74;21144;-77
2022/02/22 12:36:05;;;;;;;18.12;11.20;;;;;;;9.04;83.05;99369.25;1871833;75;21275;-76
2022/02/22 12:39:23;;;;;;;20.57;11.93;;;;;;;9.01;83.37;99377.80;1864651;75;21195;-77
2022/02/22 12:42:30;;;;;;;24.40;12.28;;;;;;;9.02;83.69;99379.48;1873540;75;21856;-82
2022/02/22 12:45:51;;;;;;;20.02;13.43;;;;;;;8.98;83.66;99384.98;1800508;79;21291;-82
2022/02/22 12:48:54;;;;;;;24.57;12.63;;;;;;;8.96;84.02;99377.00;1865239;75;21271;-82
2022/02/22 12:52:10;;;;;;;21.90;12.15;;;;;;;8.98;84.42;99378.16;1868492;74;21765;-83
2022/02/22 12:55:19;;;;;;;21.25;12.58;;;;;;;9.03;84.38;99380.65;1870325;74;21471;-75
2022/02/22 12:58:24;;;;;;;19.02;13.22;;;;;;;8.97;84.36;99380.05;1867787;74;21309;-75
2022/02/22 13:01:29;;;;;;;22.02;12.78;;;;;;;8.91;84.84;99383.54;1868026;75;21632;-75
2022/02/22 13:04:36;;;;;;;22.07;14.20;;;;;;;8.85;85.33;99383.78;1874750;74;21306;-77
2022/02/22 13:07:43;;;;;;;23.02;13.72;;;;;;;8.82;85.70;99388.23;1871177;74;21220;-77
2022/02/22 13:10:56;;;;;;;26.95;14.73;;;;;;;8.81;85.93;99381.09;1869792;74;21273;-77
2022/02/22 13:14:03;;;;;;;24.63;14.63;;;;;;;8.82;86.28;99385.51;1869382;74;22060;-77
2022/02/22 13:17:08;;;;;;;25.00;13.90;;;;;;;8.88;86.50;99386.11;1864080;75;21306;-77
2022/02/22 13:20:16;;;;;;;20.68;13.22;;;;;;;8.89;86.60;99379.64;1870401;75;21218;-77
2022/02/22 13:23:23;;;;;;;26.97;14.43;;;;;;;8.91;86.70;99389.84;1869713;75;21186;-76
2022/02/22 13:26:34;;;;;;;26.50;14.33;;;;;;;8.88;86.82;99386.63;1867869;75;21653;-77
2022/02/22 13:29:42;;;;;;;26.82;14.20;;;;;;;8.82;87.23;99385.51;1864192;75;21545;-76
2022/02/22 13:32:55;;;;;;;27.87;13.93;;;;;;;8.81;87.89;99382.45;1867172;75;21899;-86
2022/02/22 13:36:07;;;;;;;27.13;17.27;;;;;;;8.79;88.44;99392.69;1868803;76;21231;-83
2022/02/22 13:39:20;;;;;;;22.85;14.45;;;;;;;8.78;88.89;99393.73;1865584;76;21246;-83
2022/02/22 13:42:25;;;;;;;26.50;14.28;;;;;;;8.80;89.25;99390.31;1874970;75;21251;-85
2022/02/22 13:45:33;;;;;;;23.10;13.78;;;;;;;8.80;89.44;99395.77;1779140;79;21570;-86
2022/02/22 13:48:39;;;;;;;22.93;14.38;;;;;;;8.81;89.64;99400.19;1802568;78;21859;-86
2022/02/22 13:51:51;;;;;;;22.10;16.12;;;;;;;8.82;89.72;99407.84;1833950;77;21278;-85
2022/02/22 13:54:57;;;;;;;29.35;16.30;;;;;;;8.82;89.43;99415.50;1807015;77;21247;-86
2022/02/22 13:58:12;;;;;;;23.92;15.60;;;;;;;8.80;88.95;99416.22;1811689;78;21782;-76
2022/02/22 14:01:20;;;;;;;26.42;14.87;;;;;;;8.70;88.72;99412.89;1810897;78;21305;-76
2022/02/22 14:04:28;;;;;;;36.60;16.42;;;;;;;8.62;88.97;99405.66;1811977;78;21278;-86
2022/02/22 14:07:34;;;;;;;25.85;16.05;;;;;;;8.59;89.36;99407.91;1798786;79;21265;-76
2022/02/22 14:10:41;;;;;;;29.32;17.98;;;;;;;8.56;89.64;99417.31;1800239;79;21152;-75
2022/02/22 14:13:48;;;;;;;29.77;17.62;;;;;;;8.57;89.88;99421.73;1832672;77;21296;-77
2022/02/22 14:17:03;;;;;;;34.55;20.92;;;;;;;8.59;90.03;99405.18;1828060;76;28015;-78
2022/02/22 14:20:10;;;;;;;35.45;19.23;;;;;;;8.64;89.87;99412.28;1825596;77;21696;-78
2022/02/22 14:23:16;;;;;;;40.03;22.00;;;;;;;8.66;89.46;99412.44;1815069;77;21327;-79
2022/02/22 14:26:21;;;;;;;34.45;20.90;;;;;;;8.59;89.50;99416.08;1831962;77;21366;-78
2022/02/22 14:29:29;;;;;;;31.70;20.43;;;;;;;8.51;89.74;99415.63;1804252;78;21169;-77
2022/02/22 14:32:36;;;;;;;32.23;20.12;;;;;;;8.44;90.00;99414.17;1744712;81;21275;-77
2022/02/22 14:35:43;;;;;;;33.70;20.25;;;;;;;8.42;90.38;99417.61;1727398;82;21348;-77